My Paraffin — ZCGG8 — position and weather

sailwx.info

Track history (hours):
 
Tides and Currents Weather Stations Pressure Air Temp Water Temp Dewpoint Dewpoint Depression Visibility Wind Speed Wind Dir Waves Ship Positions

My Paraffin

Last reported at 2015-Aug-30 05:33 UTC. Time now 2015-Aug-31 04:50 UTC.
Position N 40°00' E 012°12'.

Length 60 m; draft 3.4 m.

Type: Pleasure craft. MMSI: 319646000.

Date/timePositionNaut miles runAvg speedWind from/ knotsBaromVisibWave heightAir tempDewpointWater temp
2015-Aug-30 05:33N 40°00' E 012°12'1212.4
2015-Aug-30 04:33N 39°54' E 012°26'3812.7
2015-Aug-30 01:33N 39°33' E 013°08'2612.9
2015-Aug-29 23:32N 39°20' E 013°37'7712.9
2015-Aug-29 17:33N 38°38' E 015°00'1312.7
2015-Aug-29 16:31N 38°31' E 015°14'1312.6
2015-Aug-29 15:30N 38°24' E 015°28'1212.6
2015-Aug-29 14:33N 38°18' E 015°41'1312.8
2015-Aug-29 13:33N 38°06' E 015°36'1211.9
2015-Aug-29 12:30N 37°54' E 015°41'  
Track history (hours):
 
Tides and Currents Weather Stations Pressure Air Temp Water Temp Dewpoint Dewpoint Depression Visibility Wind Speed Wind Dir Waves Ship Positions

My Paraffin

Last reported at 2015-Aug-30 05:33 UTC. Time now 2015-Aug-31 04:50 UTC.
Position N 40°00' E 012°12'.

Length 60 m; draft 3.4 m.

Type: Pleasure craft. MMSI: 319646000.

Date/timePositionNaut miles runAvg speedWind from/ knotsBaromVisibWave heightAir tempDewpointWater temp
2015-Aug-30 05:33N 40°00' E 012°12'1212.4
2015-Aug-30 04:33N 39°54' E 012°26'3812.7
2015-Aug-30 01:33N 39°33' E 013°08'2612.9
2015-Aug-29 23:32N 39°20' E 013°37'7712.9
2015-Aug-29 17:33N 38°38' E 015°00'1312.7
2015-Aug-29 16:31N 38°31' E 015°14'1312.6
2015-Aug-29 15:30N 38°24' E 015°28'1212.6
2015-Aug-29 14:33N 38°18' E 015°41'1312.8
2015-Aug-29 13:33N 38°06' E 015°36'1211.9
2015-Aug-29 12:30N 37°54' E 015°41'  

Dump ship's entire track history